Time;durP1;ratioP1;P1;durP2;ratioP2;P2;SDS_P1;SDS_P2;PMS_P1;PMS_P2;Temp;Humidity;BMP_temperature;BMP_pressure;BME280_temperature;BME280_humidity;BME280_pressure;Samples;Min_cycle;Max_cycle;Signal;HPM_P1;HPM_P2
2020/12/30 00:02:02;;;;;;;2.50;2.22;;;4.10;99.90;;;;;;5020861;28;20028;-75
2020/12/30 00:04:28;;;;;;;2.85;2.00;;;4.10;99.90;;;;;;5026497;28;20026;-74
2020/12/30 00:06:54;;;;;;;2.42;2.20;;;4.10;99.90;;;;;;5003209;28;20076;-75
2020/12/30 00:09:19;;;;;;;2.65;1.92;;;4.10;99.90;;;;;;5016407;28;20124;-75
2020/12/30 00:11:45;;;;;;;2.10;1.83;;;4.10;99.90;;;;;;4999000;28;20029;-73
2020/12/30 00:14:10;;;;;;;2.22;2.03;;;4.20;99.90;;;;;;4997319;28;20097;-72
2020/12/30 00:16:36;;;;;;;2.35;1.90;;;4.20;99.90;;;;;;5014827;28;20025;-73
2020/12/30 00:19:01;;;;;;;2.75;2.10;;;4.20;99.90;;;;;;5013929;28;20033;-71
2020/12/30 00:21:27;;;;;;;2.15;1.83;;;4.20;99.90;;;;;;5014809;28;20552;-72
2020/12/30 00:23:52;;;;;;;3.13;2.13;;;4.20;99.90;;;;;;4990856;28;20029;-74
2020/12/30 00:26:19;;;;;;;3.03;2.15;;;4.30;99.90;;;;;;4998472;28;20022;-73
2020/12/30 00:28:45;;;;;;;3.88;2.67;;;4.30;99.90;;;;;;5016289;28;20703;-75
2020/12/30 00:31:10;;;;;;;2.67;1.85;;;4.30;99.90;;;;;;5015068;28;20401;-74
2020/12/30 00:33:36;;;;;;;2.17;1.98;;;4.20;99.90;;;;;;5014731;28;20037;-73
2020/12/30 00:36:02;;;;;;;2.40;1.90;;;4.20;99.90;;;;;;4997306;28;20369;-72
2020/12/30 00:38:28;;;;;;;2.08;1.88;;;4.10;99.90;;;;;;5019570;28;20109;-76
2020/12/30 00:40:54;;;;;;;2.42;1.90;;;4.10;1.00;;;;;;5015207;28;20054;-73
2020/12/30 00:43:19;;;;;;;2.22;1.55;;;4.10;99.90;;;;;;5018805;28;20022;-72
2020/12/30 00:45:45;;;;;;;4.20;2.10;;;4.10;99.90;;;;;;5021785;28;20511;-72
2020/12/30 00:48:11;;;;;;;3.63;2.03;;;4.10;1.00;;;;;;5006061;28;20029;-73
2020/12/30 00:50:36;;;;;;;2.08;1.88;;;4.10;1.00;;;;;;5021940;28;20037;-72
2020/12/30 00:53:02;;;;;;;3.15;2.30;;;4.10;1.00;;;;;;5003989;28;20018;-71
2020/12/30 00:55:27;;;;;;;3.58;2.20;;;4.10;1.00;;;;;;5017298;28;20034;-76
2020/12/30 00:57:53;;;;;;;4.20;2.10;;;4.10;1.00;;;;;;5017549;28;20496;-72
2020/12/30 01:00:19;;;;;;;3.13;2.00;;;4.10;1.00;;;;;;5019160;28;20468;-73
2020/12/30 01:02:44;;;;;;;2.35;1.92;;;4.00;1.00;;;;;;4990664;28;20041;-73
2020/12/30 01:05:10;;;;;;;2.75;2.10;;;4.00;1.00;;;;;;5010386;28;20018;-75
2020/12/30 01:07:35;;;;;;;2.78;1.95;;;4.00;1.00;;;;;;5003758;28;20033;-72
2020/12/30 01:10:01;;;;;;;1.63;1.50;;;4.00;1.00;;;;;;5003381;28;20041;-70
2020/12/30 01:12:26;;;;;;;3.25;1.92;;;4.00;1.00;;;;;;5020085;28;20498;-71
2020/12/30 01:14:52;;;;;;;3.65;1.70;;;3.90;1.00;;;;;;5003848;28;20121;-70
2020/12/30 01:17:17;;;;;;;2.53;1.90;;;3.90;1.00;;;;;;4995479;28;20101;-72
2020/12/30 01:19:43;;;;;;;3.28;2.13;;;4.00;99.90;;;;;;4986010;28;20028;-72
2020/12/30 01:22:09;;;;;;;2.85;2.10;;;3.90;1.00;;;;;;5020306;28;20022;-72
2020/12/30 01:24:34;;;;;;;3.47;2.20;;;3.90;1.00;;;;;;5021515;28;20100;-72
2020/12/30 01:27:00;;;;;;;2.13;1.90;;;3.90;1.00;;;;;;5019990;28;20060;-72
2020/12/30 01:29:26;;;;;;;2.70;2.10;;;3.90;1.00;;;;;;5003444;28;20037;-71
2020/12/30 01:31:51;;;;;;;3.20;2.00;;;3.90;1.00;;;;;;5017826;28;20304;-72
2020/12/30 01:34:17;;;;;;;2.58;2.33;;;3.90;1.00;;;;;;5015402;28;20110;-71
2020/12/30 01:36:42;;;;;;;2.65;2.45;;;3.90;1.00;;;;;;5015645;28;20033;-71
2020/12/30 01:39:08;;;;;;;3.20;1.80;;;3.90;1.00;;;;;;5019151;28;20022;-70
2020/12/30 01:41:34;;;;;;;2.20;1.63;;;3.90;1.00;;;;;;5024400;28;20018;-71
2020/12/30 01:44:09;;;;;;;3.88;2.10;;;3.80;1.00;;;;;;5012024;28;20021;-70
2020/12/30 01:46:46;;;;;;;2.47;2.00;;;3.90;1.00;;;;;;5004809;28;20073;-72
2020/12/30 01:49:13;;;;;;;2.08;1.88;;;3.90;1.00;;;;;;5014498;28;20513;-73
2020/12/30 01:51:40;;;;;;;2.28;2.08;;;3.90;1.00;;;;;;5013101;28;20038;-71
2020/12/30 01:54:10;;;;;;;2.50;2.05;;;3.90;1.00;;;;;;5013861;28;20022;-73
2020/12/30 01:56:36;;;;;;;3.87;2.23;;;3.90;1.00;;;;;;5005145;28;20026;-75
2020/12/30 01:59:06;;;;;;;3.03;1.77;;;4.00;1.00;;;;;;5018190;28;20275;-73
2020/12/30 02:01:35;;;;;;;2.28;1.83;;;4.00;99.90;;;;;;5020841;28;20022;-74
2020/12/30 02:04:06;;;;;;;3.03;2.28;;;4.00;99.90;;;;;;5014454;28;20026;-73
2020/12/30 02:06:32;;;;;;;;;;;4.00;99.90;;;;;;5014476;28;20033;-74
2020/12/30 02:08:58;;;;;;;1.73;1.63;;;4.00;99.90;;;;;;5013244;28;19909;-74
2020/12/30 02:11:26;;;;;;;3.45;1.50;;;4.00;99.90;;;;;;5013066;28;20474;-73
2020/12/30 02:14:11;;;;;;;2.35;1.77;;;4.00;99.90;;;;;;5011630;28;20026;-73
2020/12/30 02:16:53;;;;;;;2.13;1.90;;;4.00;99.90;;;;;;5017484;28;20045;-73
2020/12/30 02:19:19;;;;;;;2.00;1.80;;;4.00;99.90;;;;;;5017766;28;20034;-74
2020/12/30 02:21:50;;;;;;;1.85;1.70;;;4.00;99.90;;;;;;5016838;28;20053;-77
2020/12/30 02:24:34;;;;;;;2.53;2.08;;;4.00;99.90;;;;;;4980312;28;20437;-74
2020/12/30 02:27:01;;;;;;;3.33;1.63;;;4.00;99.90;;;;;;4997610;28;20026;-74
2020/12/30 02:29:28;;;;;;;1.48;1.38;;;4.00;99.90;;;;;;4997204;28;20034;-73
2020/12/30 02:31:54;;;;;;;3.60;1.92;;;4.00;99.90;;;;;;4997512;28;20033;-74
2020/12/30 02:34:19;;;;;;;1.95;1.75;;;4.00;99.90;;;;;;4983478;28;20482;-72
2020/12/30 02:36:45;;;;;;;1.75;1.65;;;4.00;99.90;;;;;;5016853;28;20050;-74
2020/12/30 02:39:11;;;;;;;2.85;2.50;;;4.00;99.90;;;;;;4999058;28;20026;-74
2020/12/30 02:41:37;;;;;;;1.95;1.75;;;4.00;99.90;;;;;;5002866;28;20034;-72
2020/12/30 02:44:04;;;;;;;2.13;1.95;;;4.10;99.90;;;;;;5023368;28;20022;-74
2020/12/30 02:46:30;;;;;;;3.30;2.22;;;4.10;99.90;;;;;;4999345;28;20030;-75
2020/12/30 02:48:55;;;;;;;2.90;1.77;;;4.10;99.90;;;;;;4979691;28;20398;-74
2020/12/30 02:51:21;;;;;;;2.58;2.05;;;4.10;99.90;;;;;;4997043;28;20096;-73
2020/12/30 02:53:47;;;;;;;2.97;2.67;;;4.10;99.90;;;;;;4979687;28;20022;-73
2020/12/30 02:56:13;;;;;;;2.65;1.73;;;4.00;99.90;;;;;;4996940;28;20511;-76
2020/12/30 02:58:40;;;;;;;2.10;1.58;;;4.00;1.00;;;;;;4996067;28;20030;-74
2020/12/30 03:01:13;;;;;;;1.83;1.65;;;4.00;1.00;;;;;;4996718;28;20034;-74
2020/12/30 03:03:39;;;;;;;2.58;1.77;;;4.00;1.00;;;;;;4979639;28;20490;-75
2020/12/30 03:06:05;;;;;;;1.58;1.48;;;4.00;1.00;;;;;;4996570;28;20038;-73
2020/12/30 03:08:31;;;;;;;4.78;1.50;;;4.00;99.90;;;;;;4996618;28;20367;-74
2020/12/30 03:10:57;;;;;;;1.75;1.45;;;4.10;99.90;;;;;;4997281;28;20097;-73
2020/12/30 03:13:23;;;;;;;2.60;1.45;;;4.10;1.00;;;;;;4996589;28;20546;-73
2020/12/30 03:15:48;;;;;;;1.75;1.23;;;4.00;1.00;;;;;;4996821;28;20038;-73
2020/12/30 03:18:14;;;;;;;1.55;1.20;;;4.00;1.00;;;;;;5000800;28;20105;-73
2020/12/30 03:20:39;;;;;;;1.40;1.30;;;4.00;1.00;;;;;;5016578;28;20064;-74
2020/12/30 03:23:05;;;;;;;2.53;1.38;;;4.10;99.90;;;;;;5016268;28;20112;-72
2020/12/30 03:25:30;;;;;;;2.20;1.48;;;4.10;1.00;;;;;;5015571;28;20465;-71
2020/12/30 03:27:56;;;;;;;1.35;1.25;;;4.10;99.90;;;;;;5016945;28;20026;-73
2020/12/30 03:30:23;;;;;;;2.67;1.52;;;4.10;99.90;;;;;;5016428;28;20371;-74
2020/12/30 03:32:48;;;;;;;1.25;1.13;;;4.10;99.90;;;;;;5016756;28;20141;-73
2020/12/30 03:35:14;;;;;;;1.67;1.38;;;4.10;99.90;;;;;;5016145;28;20486;-73
2020/12/30 03:37:39;;;;;;;1.50;1.40;;;4.10;1.00;;;;;;5015939;28;20033;-73
2020/12/30 03:40:05;;;;;;;2.90;1.30;;;4.10;1.00;;;;;;5012679;28;20399;-73
2020/12/30 03:42:31;;;;;;;2.80;1.50;;;4.10;1.00;;;;;;5014953;28;20018;-72
2020/12/30 03:44:57;;;;;;;1.42;1.33;;;4.10;99.90;;;;;;5016280;28;20453;-72
2020/12/30 03:47:22;;;;;;;2.65;1.27;;;4.10;99.90;;;;;;5014632;28;20164;-74
2020/12/30 03:49:48;;;;;;;1.38;1.27;;;4.10;99.90;;;;;;4999531;28;20066;-73
2020/12/30 03:52:14;;;;;;;2.65;1.10;;;4.10;99.90;;;;;;5015245;28;20036;-72
2020/12/30 03:54:40;;;;;;;2.00;1.33;;;4.10;99.90;;;;;;5016190;28;20072;-74
2020/12/30 03:57:05;;;;;;;1.35;1.25;;;4.00;99.90;;;;;;5015900;28;20038;-72
2020/12/30 03:59:31;;;;;;;1.70;1.08;;;3.90;1.00;;;;;;5015038;28;20042;-73
2020/12/30 04:01:56;;;;;;;1.48;1.38;;;3.90;1.00;;;;;;5019902;28;20022;-75
2020/12/30 04:04:22;;;;;;;2.85;2.13;;;3.80;1.00;;;;;;5017531;28;20022;-72
2020/12/30 04:06:49;;;;;;;2.38;1.65;;;3.70;1.00;;;;;;4998576;28;20022;-72
2020/12/30 04:09:15;;;;;;;5.65;1.50;;;3.80;1.00;;;;;;5015559;28;20022;-74
2020/12/30 04:11:41;;;;;;;3.88;1.98;;;3.80;1.00;;;;;;5014566;28;20551;-74
2020/12/30 04:14:06;;;;;;;3.17;1.63;;;3.80;1.00;;;;;;5040632;22;20522;-71
2020/12/30 04:16:32;;;;;;;4.78;3.08;;;3.70;1.00;;;;;;5033075;28;20397;-71
2020/12/30 04:18:57;;;;;;;2.05;1.45;;;3.60;1.00;;;;;;5034058;28;20026;-72
2020/12/30 04:21:24;;;;;;;1.58;1.27;;;3.50;1.00;;;;;;5034188;28;20037;-72
2020/12/30 04:23:51;;;;;;;2.22;1.42;;;3.50;1.00;;;;;;5034506;28;20029;-72
2020/12/30 04:26:17;;;;;;;1.75;1.13;;;3.40;1.00;;;;;;5034219;28;20132;-71
2020/12/30 04:28:43;;;;;;;3.33;1.52;;;3.40;1.00;;;;;;5033687;28;20022;-70
2020/12/30 04:31:13;;;;;;;2.03;1.27;;;3.50;1.00;;;;;;5015661;28;20095;-71
2020/12/30 04:33:39;;;;;;;2.35;1.60;;;3.50;1.00;;;;;;5033941;28;20037;-71
2020/12/30 04:36:06;;;;;;;5.55;1.67;;;3.60;1.00;;;;;;5034129;28;20040;-73
2020/12/30 04:38:32;;;;;;;2.63;1.63;;;3.60;1.00;;;;;;5025660;28;20045;-71
2020/12/30 04:40:59;;;;;;;2.28;1.35;;;3.70;1.00;;;;;;5042943;28;20056;-71
2020/12/30 04:43:28;;;;;;;5.78;1.90;;;3.70;1.00;;;;;;5017590;28;20025;-70
2020/12/30 04:45:54;;;;;;;1.98;1.67;;;3.60;1.00;;;;;;5034457;28;20179;-70
2020/12/30 04:48:21;;;;;;;3.25;1.30;;;3.50;1.00;;;;;;5034514;28;20477;-71
2020/12/30 04:50:47;;;;;;;2.38;1.48;;;3.50;1.00;;;;;;5033852;28;20029;-71
2020/12/30 04:53:13;;;;;;;1.35;1.25;;;3.50;1.00;;;;;;5034625;28;20436;-71
2020/12/30 04:55:41;;;;;;;1.70;1.23;;;3.50;1.00;;;;;;5034139;28;20038;-72
2020/12/30 04:58:07;;;;;;;2.15;1.20;;;3.50;1.00;;;;;;5033800;28;20022;-71
2020/12/30 05:00:38;;;;;;;2.00;1.58;;;3.40;1.00;;;;;;5033585;28;20143;-70
2020/12/30 05:03:08;;;;;;;2.03;1.15;;;3.50;1.00;;;;;;4996854;28;20026;-70
2020/12/30 05:05:38;;;;;;;2.08;1.70;;;3.50;1.00;;;;;;5033909;28;20116;-71
2020/12/30 05:08:11;;;;;;;2.60;1.60;;;3.50;1.00;;;;;;5035066;28;20029;-70
2020/12/30 05:10:46;;;;;;;5.55;1.38;;;3.60;1.00;;;;;;5017278;28;20033;-71
2020/12/30 05:13:12;;;;;;;2.50;1.58;;;3.70;1.00;;;;;;5017052;28;20064;-71
2020/12/30 05:15:38;;;;;;;7.03;2.25;;;3.60;1.00;;;;;;5033152;28;20124;-71
2020/12/30 05:18:06;;;;;;;4.45;1.70;;;3.50;1.00;;;;;;5033679;28;20052;-71
2020/12/30 05:20:36;;;;;;;2.00;1.10;;;3.50;1.00;;;;;;5015506;28;20033;-70
2020/12/30 05:23:11;;;;;;;2.83;1.42;;;3.50;1.00;;;;;;5034106;28;20029;-71
2020/12/30 05:25:39;;;;;;;2.47;1.52;;;3.50;1.00;;;;;;5033161;28;20123;-70
2020/12/30 05:28:05;;;;;;;2.22;1.58;;;3.40;1.00;;;;;;5033106;28;20021;-70
2020/12/30 05:30:32;;;;;;;3.78;1.70;;;3.40;1.00;;;;;;5032656;28;20029;-71
2020/12/30 05:32:58;;;;;;;2.10;1.20;;;3.50;1.00;;;;;;5033046;28;20075;-70
2020/12/30 05:35:28;;;;;;;1.85;1.15;;;3.50;1.00;;;;;;5033234;28;20026;-70
2020/12/30 05:37:55;;;;;;;2.45;1.30;;;3.50;1.00;;;;;;5032759;28;20028;-71
2020/12/30 05:40:26;;;;;;;3.95;1.40;;;3.50;1.00;;;;;;5032303;28;20116;-71
2020/12/30 05:42:52;;;;;;;;;;;3.50;1.00;;;;;;5033389;28;20101;-72
2020/12/30 05:45:23;;;;;;;3.92;2.38;;;3.50;1.00;;;;;;5032496;28;19909;-72
2020/12/30 05:47:50;;;;;;;2.78;1.30;;;3.40;1.00;;;;;;5030746;28;20487;-68
2020/12/30 05:50:25;;;;;;;1.48;1.35;;;3.50;1.00;;;;;;5014382;28;20038;-70
2020/12/30 05:52:52;;;;;;;2.55;1.00;;;3.50;1.00;;;;;;5032481;28;20493;-70
2020/12/30 05:55:25;;;;;;;1.83;1.42;;;3.60;1.00;;;;;;5032643;28;20033;-70
2020/12/30 05:57:51;;;;;;;4.63;2.03;;;3.70;1.00;;;;;;5032020;28;20412;-71
2020/12/30 06:00:16;;;;;;;6.85;2.05;;;3.70;1.00;;;;;;5032629;28;20045;-70
2020/12/30 06:02:47;;;;;;;4.53;1.20;;;3.70;1.00;;;;;;5032983;28;20022;-71
2020/12/30 06:05:23;;;;;;;3.45;1.30;;;3.80;99.90;;;;;;5032525;28;20034;-72
2020/12/30 06:07:50;;;;;;;1.88;1.42;;;3.90;99.90;;;;;;5000910;28;20026;-71
2020/12/30 06:10:19;;;;;;;2.58;1.30;;;3.90;99.90;;;;;;5014565;28;20512;-71
2020/12/30 06:12:44;;;;;;;4.82;1.17;;;3.90;99.90;;;;;;5031807;28;20377;-70
2020/12/30 06:15:13;;;;;;;3.50;1.10;;;3.90;99.90;;;;;;5031998;28;20029;-70
2020/12/30 06:17:53;;;;;;;2.50;1.15;;;3.90;99.90;;;;;;5032047;28;20052;-70
2020/12/30 06:20:38;;;;;;;2.17;1.30;;;3.90;99.90;;;;;;5029469;28;20069;-71
2020/12/30 06:23:14;;;;;;;2.22;0.93;;;4.00;99.90;;;;;;5031892;28;20026;-71
2020/12/30 06:25:49;;;;;;;4.85;1.48;;;4.10;99.90;;;;;;5024159;28;20504;-70
2020/12/30 06:28:21;;;;;;;2.80;1.05;;;4.00;99.90;;;;;;5031634;28;20061;-71
2020/12/30 06:30:48;;;;;;;2.10;1.23;;;3.90;99.90;;;;;;5031580;28;20028;-70
2020/12/30 06:33:15;;;;;;;5.78;2.00;;;4.00;99.90;;;;;;5014471;28;20397;-70
2020/12/30 06:35:43;;;;;;;4.05;2.15;;;4.00;99.90;;;;;;5014121;28;20040;-69
2020/12/30 06:38:25;;;;;;;4.57;2.53;;;3.80;99.90;;;;;;5033553;28;20030;-70
2020/12/30 06:41:02;;;;;;;4.18;2.25;;;3.80;99.90;;;;;;5048449;28;20025;-69
2020/12/30 06:43:39;;;;;;;4.30;2.10;;;3.60;99.90;;;;;;5056630;28;20025;-69
2020/12/30 06:46:06;;;;;;;4.90;2.10;;;3.50;99.90;;;;;;5038890;28;20025;-71
2020/12/30 06:48:54;;;;;;;5.60;2.22;;;3.30;1.00;;;;;;5051090;28;20034;-70
2020/12/30 06:51:20;;;;;;;4.35;3.60;;;3.30;1.00;;;;;;5035502;28;20034;-70
2020/12/30 06:53:49;;;;;;;1.98;1.58;;;3.20;1.00;;;;;;5015983;28;20060;-71
2020/12/30 06:56:15;;;;;;;3.35;1.80;;;3.30;1.00;;;;;;5035189;28;20030;-73
2020/12/30 06:58:40;;;;;;;10.30;2.03;;;3.40;1.00;;;;;;5054291;28;20029;-69
2020/12/30 07:01:06;;;;;;;2.80;1.40;;;3.40;1.00;;;;;;5052306;28;20159;-71
2020/12/30 07:03:32;;;;;;;6.88;3.05;;;3.50;1.00;;;;;;5036617;28;20080;-70
2020/12/30 07:06:24;;;;;;;1.75;1.52;;;3.50;1.00;;;;;;5035776;28;20417;-70
2020/12/30 07:08:54;;;;;;;2.17;1.48;;;3.60;1.00;;;;;;5029312;28;20035;-71
2020/12/30 07:11:39;;;;;;;1.97;1.30;;;3.50;1.00;;;;;;5034640;28;20022;-70
2020/12/30 07:14:06;;;;;;;2.28;1.40;;;3.60;1.00;;;;;;5034530;28;20032;-70
2020/12/30 07:16:36;;;;;;;5.32;2.13;;;3.60;99.90;;;;;;5034975;28;20140;-69
2020/12/30 07:19:09;;;;;;;1.30;1.20;;;3.60;99.90;;;;;;5034311;28;20027;-69
2020/12/30 07:21:49;;;;;;;1.90;1.38;;;3.60;1.00;;;;;;5035052;28;20426;-71
2020/12/30 07:24:39;;;;;;;4.13;1.80;;;3.70;99.90;;;;;;5034297;28;20397;-71
2020/12/30 07:27:16;;;;;;;4.13;1.83;;;3.70;99.90;;;;;;5035037;28;20443;-71
2020/12/30 07:29:43;;;;;;;4.85;1.80;;;3.60;99.90;;;;;;5017282;28;20029;-70
2020/12/30 07:32:09;;;;;;;2.80;1.63;;;3.60;99.90;;;;;;5035175;28;20029;-71
2020/12/30 07:34:43;;;;;;;2.80;1.80;;;3.70;99.90;;;;;;5034822;28;20033;-71
2020/12/30 07:37:09;;;;;;;5.18;1.70;;;3.70;99.90;;;;;;5019520;28;20038;-72
2020/12/30 07:39:40;;;;;;;4.50;1.95;;;3.70;99.90;;;;;;5034191;28;20029;-69
2020/12/30 07:42:08;;;;;;;6.70;2.83;;;3.70;99.90;;;;;;5034183;28;20108;-70
2020/12/30 07:44:34;;;;;;;5.15;2.38;;;3.70;99.90;;;;;;5033985;28;20018;-71
2020/12/30 07:47:08;;;;;;;4.28;1.77;;;3.60;1.00;;;;;;5034418;28;20022;-71
2020/12/30 07:49:34;;;;;;;5.53;2.20;;;3.70;99.90;;;;;;5033555;28;20432;-70
2020/12/30 07:52:04;;;;;;;2.95;1.83;;;3.70;99.90;;;;;;5034288;28;20037;-71
2020/12/30 07:54:30;;;;;;;2.35;1.60;;;3.80;99.90;;;;;;5033908;28;20036;-71
2020/12/30 07:57:09;;;;;;;2.55;2.35;;;3.90;99.90;;;;;;5016189;28;20022;-71
2020/12/30 07:59:36;;;;;;;3.47;1.70;;;3.90;99.90;;;;;;5034071;28;20029;-70
2020/12/30 08:02:10;;;;;;;4.05;2.08;;;3.90;99.90;;;;;;5033691;28;20026;-70
2020/12/30 08:04:37;;;;;;;1.83;1.50;;;3.90;99.90;;;;;;5033417;28;20025;-70
2020/12/30 08:07:13;;;;;;;2.63;1.45;;;3.90;99.90;;;;;;5021302;28;20366;-71
2020/12/30 08:09:43;;;;;;;2.22;1.85;;;3.90;99.90;;;;;;5034073;28;20091;-71
2020/12/30 08:12:13;;;;;;;2.50;1.90;;;4.00;99.90;;;;;;5016333;28;20043;-71
2020/12/30 08:14:40;;;;;;;2.83;1.50;;;4.00;99.90;;;;;;5033638;28;20440;-71
2020/12/30 08:17:12;;;;;;;2.92;1.67;;;4.00;99.90;;;;;;5033632;28;20042;-70
2020/12/30 08:19:45;;;;;;;1.90;1.50;;;4.10;99.90;;;;;;5015699;28;20044;-71
2020/12/30 08:22:17;;;;;;;2.47;1.75;;;4.10;99.90;;;;;;5033681;28;20113;-70
2020/12/30 08:24:46;;;;;;;4.90;2.17;;;4.20;99.90;;;;;;5015790;28;20092;-69
2020/12/30 08:27:16;;;;;;;2.63;1.48;;;4.20;99.90;;;;;;5031941;28;20032;-69
2020/12/30 08:29:43;;;;;;;5.78;1.50;;;4.20;99.90;;;;;;5016541;28;20021;-70
2020/12/30 08:32:31;;;;;;;2.17;1.55;;;4.30;99.90;;;;;;5034658;28;20029;-71
2020/12/30 08:35:11;;;;;;;2.42;1.40;;;4.50;99.90;;;;;;5028423;28;20017;-71
2020/12/30 08:37:42;;;;;;;3.15;1.73;;;4.60;99.90;;;;;;5015803;28;20063;-69
2020/12/30 08:40:22;;;;;;;2.78;1.30;;;4.70;99.90;;;;;;5021993;28;20044;-70
2020/12/30 08:42:54;;;;;;;1.67;1.58;;;4.80;99.90;;;;;;5027966;28;20097;-72
2020/12/30 08:45:29;;;;;;;2.72;1.35;;;4.80;99.90;;;;;;5033451;28;20104;-71
2020/12/30 08:47:57;;;;;;;3.70;1.73;;;4.80;99.90;;;;;;5034038;28;20018;-70
2020/12/30 08:50:25;;;;;;;2.53;1.30;;;4.80;99.90;;;;;;5016139;28;20021;-71
2020/12/30 08:52:52;;;;;;;2.40;1.30;;;4.90;99.90;;;;;;5033607;28;20032;-70
2020/12/30 08:55:19;;;;;;;2.30;1.05;;;4.90;92.30;;;;;;5015000;28;20030;-71
2020/12/30 08:57:46;;;;;;;3.38;1.10;;;4.90;99.90;;;;;;5033789;28;20045;-70
2020/12/30 09:00:18;;;;;;;2.38;1.88;;;4.90;93.40;;;;;;5033755;28;20084;-70
2020/12/30 09:02:44;;;;;;;1.35;1.25;;;4.90;84.00;;;;;;5015912;28;20025;-72
2020/12/30 09:05:10;;;;;;;2.28;1.30;;;4.90;99.90;;;;;;5016032;28;20029;-72
2020/12/30 09:07:38;;;;;;;2.33;1.10;;;4.90;90.30;;;;;;5033541;28;20095;-71
2020/12/30 09:10:11;;;;;;;3.70;1.20;;;5.00;77.60;;;;;;4999909;28;20116;-71
2020/12/30 09:12:38;;;;;;;1.42;1.13;;;5.20;1.00;;;;;;5033649;28;20346;-70
2020/12/30 09:15:05;;;;;;;2.40;1.90;;;5.40;1.00;;;;;;5033806;28;20451;-70
2020/12/30 09:17:32;;;;;;;3.47;2.35;;;5.40;1.00;;;;;;5033946;28;20025;-71
2020/12/30 09:20:16;;;;;;;2.22;2.03;;;5.60;1.00;;;;;;5033096;28;20065;-70
2020/12/30 09:22:43;;;;;;;3.97;2.28;;;5.30;1.00;;;;;;5032989;28;20022;-71
2020/12/30 09:25:35;;;;;;;3.17;2.08;;;5.30;1.00;;;;;;5033294;28;20056;-71
2020/12/30 09:28:01;;;;;;;2.45;1.75;;;5.00;37.30;;;;;;5033328;28;20054;-70
2020/12/30 09:30:27;;;;;;;3.17;2.88;;;4.90;42.60;;;;;;5034782;28;20034;-72
2020/12/30 09:33:10;;;;;;;3.40;1.83;;;4.90;79.20;;;;;;5039302;28;20029;-69
2020/12/30 09:35:35;;;;;;;3.13;2.13;;;5.00;20.30;;;;;;5045164;28;20060;-71
2020/12/30 09:38:01;;;;;;;2.90;1.77;;;5.10;24.40;;;;;;5033885;28;20022;-70
2020/12/30 09:40:27;;;;;;;2.13;1.70;;;5.10;1.00;;;;;;5032647;28;20026;-71
2020/12/30 09:43:06;;;;;;;4.85;1.67;;;5.20;1.00;;;;;;5032596;28;20026;-74
2020/12/30 09:45:32;;;;;;;3.40;1.58;;;5.20;1.00;;;;;;5015820;28;20030;-72
2020/12/30 09:48:15;;;;;;;6.32;2.25;;;5.20;1.00;;;;;;5034628;28;20472;-70
2020/12/30 09:50:42;;;;;;;3.13;1.25;;;5.30;1.00;;;;;;5032700;28;20034;-71
2020/12/30 09:53:08;;;;;;;2.05;1.15;;;5.30;1.00;;;;;;5015687;28;20037;-72
2020/12/30 09:55:34;;;;;;;0.95;0.85;;;5.30;1.00;;;;;;5032176;28;20120;-72
2020/12/30 09:58:00;;;;;;;1.95;1.20;;;5.40;1.00;;;;;;5032790;28;20029;-70
2020/12/30 10:00:26;;;;;;;2.65;1.25;;;5.50;1.00;;;;;;5015872;28;20087;-70
2020/12/30 10:02:52;;;;;;;2.67;1.35;;;5.40;1.00;;;;;;5032882;28;20021;-69
2020/12/30 10:05:18;;;;;;;2.58;1.27;;;5.50;1.00;;;;;;5014530;28;20022;-72
2020/12/30 10:07:43;;;;;;;3.20;1.45;;;5.50;1.00;;;;;;5014819;28;20578;-71
2020/12/30 10:10:09;;;;;;;4.25;2.10;;;5.50;1.00;;;;;;5032934;28;20049;-72
2020/12/30 10:12:38;;;;;;;4.90;2.25;;;5.70;1.00;;;;;;5033458;28;20209;-72
2020/12/30 10:15:07;;;;;;;6.88;2.20;;;5.60;1.00;;;;;;5047505;22;20046;-73
2020/12/30 10:17:33;;;;;;;4.93;2.15;;;5.70;99.90;;;;;;5013146;28;20029;-74
2020/12/30 10:19:59;;;;;;;4.28;2.40;;;5.80;99.90;;;;;;5022725;28;20033;-74
2020/12/30 10:22:25;;;;;;;4.28;2.17;;;5.80;99.90;;;;;;5035804;28;20026;-75
2020/12/30 10:24:50;;;;;;;4.45;2.35;;;5.60;99.90;;;;;;5020818;28;20014;-76
2020/12/30 10:27:16;;;;;;;3.42;2.22;;;5.60;99.90;;;;;;5015471;28;20042;-75
2020/12/30 10:29:42;;;;;;;5.93;2.30;;;5.70;99.90;;;;;;5016350;28;20548;-74
2020/12/30 10:32:07;;;;;;;2.88;2.00;;;5.60;99.90;;;;;;5008029;28;20034;-74
2020/12/30 10:34:35;;;;;;;3.00;2.20;;;5.60;99.90;;;;;;5006259;28;20546;-74
2020/12/30 10:37:01;;;;;;;3.05;2.42;;;5.60;99.90;;;;;;5016734;28;20024;-74
2020/12/30 10:39:26;;;;;;;2.83;2.00;;;5.60;99.90;;;;;;5001381;28;20033;-74
2020/12/30 10:41:56;;;;;;;3.40;2.38;;;5.60;99.90;;;;;;5000483;28;20022;-74
2020/12/30 10:44:22;;;;;;;5.93;2.38;;;5.50;99.90;;;;;;5011927;28;20026;-74
2020/12/30 10:46:48;;;;;;;5.07;2.30;;;5.60;1.00;;;;;;5008145;28;20026;-74
2020/12/30 10:49:14;;;;;;;4.28;1.80;;;5.60;99.90;;;;;;5007351;28;20027;-73
2020/12/30 10:51:44;;;;;;;3.95;2.35;;;5.60;99.90;;;;;;5008750;28;20104;-76
2020/12/30 10:54:09;;;;;;;3.72;2.20;;;5.70;99.90;;;;;;5007002;28;20104;-74
2020/12/30 10:56:35;;;;;;;4.15;2.13;;;5.70;99.90;;;;;;5017981;28;20066;-75
2020/12/30 10:59:00;;;;;;;3.08;2.22;;;5.70;99.90;;;;;;5010575;28;20030;-74
2020/12/30 11:01:26;;;;;;;3.72;2.35;;;5.80;99.90;;;;;;5014079;28;20026;-74
2020/12/30 11:03:51;;;;;;;2.63;2.15;;;5.80;99.90;;;;;;5007850;28;20092;-74
2020/12/30 11:06:19;;;;;;;3.72;2.15;;;5.70;99.90;;;;;;5008933;28;20034;-74
2020/12/30 11:08:47;;;;;;;3.08;2.17;;;5.70;99.90;;;;;;4992963;28;20362;-74
2020/12/30 11:11:13;;;;;;;4.30;2.55;;;5.80;99.90;;;;;;5004190;28;20449;-74
2020/12/30 11:13:38;;;;;;;3.92;2.53;;;5.70;99.90;;;;;;4989490;28;20097;-73
2020/12/30 11:16:04;;;;;;;3.83;2.95;;;5.70;99.90;;;;;;5026912;28;20033;-73
2020/12/30 11:18:30;;;;;;;5.75;2.67;;;5.90;99.90;;;;;;5020377;28;20030;-74
2020/12/30 11:20:56;;;;;;;4.05;2.58;;;6.00;99.90;;;;;;5009174;28;20081;-73
2020/12/30 11:23:21;;;;;;;4.70;2.90;;;5.70;99.90;;;;;;5023438;28;20048;-75
2020/12/30 11:25:47;;;;;;;3.83;2.45;;;5.70;1.00;;;;;;5027406;28;20021;-75
2020/12/30 11:28:13;;;;;;;6.63;2.88;;;5.90;99.90;;;;;;5009308;28;20030;-76
2020/12/30 11:30:39;;;;;;;3.47;2.03;;;5.70;99.90;;;;;;5016223;28;20029;-75
2020/12/30 11:33:05;;;;;;;2.22;0.98;;;5.70;1.00;;;;;;5008362;28;20029;-76
2020/12/30 11:35:31;;;;;;;1.77;0.88;;;5.80;99.90;;;;;;5011583;28;20033;-74
2020/12/30 11:37:57;;;;;;;2.55;1.20;;;5.90;99.90;;;;;;5017081;28;20537;-76
2020/12/30 11:40:23;;;;;;;1.15;1.00;;;6.00;99.90;;;;;;5013494;28;20030;-76
2020/12/30 11:42:49;;;;;;;2.53;1.55;;;6.10;99.90;;;;;;5002885;28;20141;-75
2020/12/30 11:45:15;;;;;;;4.03;1.48;;;6.20;99.90;;;;;;4989767;28;20034;-75
2020/12/30 11:47:40;;;;;;;1.73;0.75;;;6.20;99.90;;;;;;5007454;28;20030;-77
2020/12/30 11:50:06;;;;;;;1.92;0.77;;;6.30;99.90;;;;;;5004139;28;20034;-75
2020/12/30 11:52:32;;;;;;;0.90;0.65;;;6.30;99.90;;;;;;5017580;28;20040;-74
2020/12/30 11:54:58;;;;;;;0.88;0.65;;;6.40;99.90;;;;;;4993395;28;20532;-76
2020/12/30 11:57:24;;;;;;;1.00;0.80;;;6.50;99.90;;;;;;5008612;28;20030;-76
2020/12/30 11:59:49;;;;;;;1.52;0.90;;;6.50;99.90;;;;;;5006495;28;20103;-75
2020/12/30 12:02:15;;;;;;;1.10;0.80;;;6.50;99.90;;;;;;5015403;28;20700;-76
2020/12/30 12:04:40;;;;;;;1.42;1.13;;;6.60;99.90;;;;;;4991174;28;20023;-76
2020/12/30 12:07:06;;;;;;;2.92;1.83;;;6.60;99.90;;;;;;5000715;28;20037;-75
2020/12/30 12:09:32;;;;;;;1.60;1.20;;;6.70;99.90;;;;;;5006492;28;20489;-75
2020/12/30 12:12:01;;;;;;;1.38;0.85;;;6.70;99.90;;;;;;5000436;28;20061;-78
2020/12/30 12:14:26;;;;;;;1.20;0.93;;;6.60;99.90;;;;;;5006509;28;20393;-76
2020/12/30 12:16:56;;;;;;;1.35;1.08;;;6.70;99.90;;;;;;5009084;28;20018;-77
2020/12/30 12:19:22;;;;;;;2.10;0.98;;;6.60;99.90;;;;;;5009721;28;20029;-77
2020/12/30 12:21:48;;;;;;;1.15;0.95;;;6.70;99.90;;;;;;4999818;28;20034;-76
2020/12/30 12:24:14;;;;;;;4.47;1.17;;;6.60;99.90;;;;;;5004357;28;20046;-76
2020/12/30 12:26:40;;;;;;;1.00;0.77;;;6.70;99.90;;;;;;5003846;28;20033;-76
2020/12/30 12:29:19;;;;;;;0.93;0.80;;;6.50;99.90;;;;;;5015531;28;20309;-76
2020/12/30 12:31:45;;;;;;;1.45;0.93;;;6.50;99.90;;;;;;4992500;28;20482;-76
2020/12/30 12:34:10;;;;;;;1.52;1.08;;;6.50;99.90;;;;;;5011302;28;20029;-76
2020/12/30 12:36:36;;;;;;;2.20;1.10;;;6.50;99.90;;;;;;5010818;28;20062;-75
2020/12/30 12:39:03;;;;;;;1.35;0.80;;;6.50;99.90;;;;;;5018662;28;20042;-75
2020/12/30 12:41:28;;;;;;;2.67;1.55;;;6.40;99.90;;;;;;5009043;28;20057;-75
2020/12/30 12:43:54;;;;;;;1.50;0.93;;;6.40;99.90;;;;;;5030542;28;20050;-76
2020/12/30 12:46:19;;;;;;;1.42;1.33;;;6.40;99.90;;;;;;5012161;28;20026;-76
2020/12/30 12:48:45;;;;;;;1.92;1.00;;;6.40;99.90;;;;;;5012322;28;20037;-75
2020/12/30 12:51:12;;;;;;;1.88;1.20;;;6.40;99.90;;;;;;5012273;28;20034;-75
2020/12/30 12:53:38;;;;;;;4.03;1.10;;;6.50;99.90;;;;;;5017181;28;20034;-76
2020/12/30 12:56:06;;;;;;;6.40;3.83;;;6.60;99.90;;;;;;4995828;28;20030;-75
2020/12/30 12:58:33;;;;;;;3.45;1.63;;;6.50;99.90;;;;;;5008237;28;20061;-73
2020/12/30 13:00:59;;;;;;;3.33;1.02;;;6.60;99.90;;;;;;5020605;28;20029;-76
2020/12/30 13:03:24;;;;;;;1.30;1.20;;;6.60;99.90;;;;;;5004675;28;20037;-77
2020/12/30 13:05:50;;;;;;;1.50;1.40;;;6.60;99.90;;;;;;5012195;28;20018;-76
2020/12/30 13:08:17;;;;;;;1.30;1.20;;;6.60;99.90;;;;;;5018596;28;20420;-76